CST,Max TemperatureF,Mean TemperatureF,Min TemperatureF,Max Dew PointF,MeanDew PointF,Min DewpointF,Max Humidity, Mean Humidity, Min Humidity, Max Sea Level PressureIn, Mean Sea Level PressureIn, Min Sea Level PressureIn, Max VisibilityMiles, Mean VisibilityMiles, Min VisibilityMiles, Max Wind SpeedMPH, Mean Wind SpeedMPH, Max Gust SpeedMPH,PrecipitationIn, CloudCover, Events, WindDirDegrees
2012-2-1,58,37,15,22,16,12,80,50,20,30.21,30.15,30.07,10,10,10,12,3,13,0.00,0,,315
2012-2-2,53,34,15,26,19,12,88,58,28,30.27,30.20,30.09,10,10,10,12,2,14,0.00,1,,72
2012-2-3,42,37,31,34,31,26,96,76,55,30.33,30.24,30.16,10,3,1,25,14,35,0.18,8,Rain-Snow,19
2012-2-4,31,21,11,28,24,10,92,85,78,30.52,30.37,30.27,10,4,1,24,14,30,0.04,6,Snow,350
2012-2-5,38,24,9,30,16,6,100,85,70,30.51,30.37,30.25,10,6,0,8,3,9,0.00,1,Fog,290
2012-2-6,43,26,9,29,15,5,92,73,53,30.34,30.23,30.14,10,5,0,25,5,30,0.00,1,Fog,307
2012-2-7,28,17,5,25,18,4,92,85,77,30.62,30.46,30.28,10,6,1,26,15,32,T,7,Rain-Snow,354
2012-2-8,24,12,-1,19,10,-5,96,85,74,30.62,30.47,30.33,10,10,10,14,5,18,0.00,6,,213
2012-2-9,39,30,21,27,21,19,96,76,56,30.32,30.17,30.04,10,9,2,28,9,36,0.00,5,,245
2012-2-10,28,15,2,18,4,-8,75,60,45,30.72,30.44,30.22,10,10,8,26,17,32,T,2,Snow,355
2012-2-11,18,7,-4,0,-6,-10,79,61,42,30.86,30.76,30.66,10,10,10,14,6,17,0.00,0,,269
2012-2-12,24,11,-3,16,6,-8,86,74,62,30.62,30.27,29.89,10,9,1,22,10,28,0.01,2,Snow,170
2012-2-13,31,21,10,25,18,7,100,85,69,29.96,29.78,29.65,10,4,0,15,5,17,0.08,6,Fog-Snow,186
2012-2-14,50,28,6,32,19,3,92,67,42,29.86,29.82,29.73,10,8,4,14,2,16,0.00,1,,282
2012-2-15,42,33,24,31,26,20,92,69,46,30.24,29.97,29.78,10,8,4,24,11,31,0.02,3,Rain,330
2012-2-16,46,32,18,28,23,14,92,71,49,30.32,30.20,30.06,10,10,10,12,5,16,0.00,1,,253
2012-2-17,42,32,21,26,22,19,88,67,45,30.29,30.16,30.02,10,10,8,15,5,18,0.00,0,,352
2012-2-18,40,27,14,24,19,11,92,70,48,30.32,30.21,30.05,10,10,9,15,7,21,0.00,0,,181
2012-2-19,38,29,19,32,27,18,92,83,74,30.10,29.95,29.81,10,10,9,25,10,31,0.00,5,,159
2012-2-20,42,36,30,40,33,26,100,85,70,29.82,29.65,29.51,10,5,1,22,14,28,0.05,8,Rain-Snow,96
2012-2-21,47,35,23,28,24,18,85,64,42,29.91,29.79,29.62,10,10,10,21,9,24,0.00,2,,273
2012-2-22,51,41,30,39,32,27,100,75,50,29.63,29.52,29.34,10,10,6,17,7,21,0.27,5,Rain,273
2012-2-23,41,35,28,38,28,22,92,76,59,29.96,29.61,29.33,10,10,9,43,22,56,0.02,6,Rain-Snow,314
2012-2-24,43,32,21,29,22,17,84,60,36,30.31,30.14,29.99,10,9,0,29,14,39,T,3,Fog-Snow,312
2012-2-25,42,29,15,26,21,14,92,71,49,30.32,30.02,29.66,10,10,10,32,11,40,0.00,1,,149
2012-2-26,50,37,23,24,19,13,85,58,31,30.36,29.96,29.66,10,10,10,28,14,32,0.00,1,,295
2012-2-27,40,26,11,20,14,8,84,61,37,30.55,30.39,30.20,10,10,10,21,10,25,0.00,2,,157
2012-2-28,52,40,28,49,34,21,100,76,52,30.18,29.63,29.33,10,6,0,36,14,47,0.38,7,Fog-Rain-Thunderstorm,142
2012-2-29,43,34,24,28,21,18,92,68,44,29.88,29.72,29.52,10,9,3,39,20,52,T,4,Snow,293